Time;durP1;ratioP1;P1;durP2;ratioP2;P2;SDS_P1;SDS_P2;PMS_P1;PMS_P2;Temp;Humidity;BMP_temperature;BMP_pressure;BME280_temperature;BME280_humidity;BME280_pressure;Samples;Min_cycle;Max_cycle;Signal;HPM_P1;HPM_P2
2021/05/11 00:06:19;;;;;;;5.28;1.67;;;12.80;99.90;;;;;;20275660;29;20077;-46
2021/05/11 00:16:20;;;;;;;8.85;2.05;;;12.70;99.90;;;;;;20274142;29;20045;-46
2021/05/11 00:26:22;;;;;;;2.83;1.70;;;12.50;99.90;;;;;;20273307;29;20096;-47
2021/05/11 00:36:25;;;;;;;2.78;1.95;;;12.60;99.90;;;;;;20273924;29;20144;-46
2021/05/11 00:46:28;;;;;;;2.95;1.50;;;12.40;99.90;;;;;;20272029;29;20052;-46
2021/05/11 00:56:30;;;;;;;2.88;1.60;;;12.20;99.90;;;;;;20271524;29;20045;-46
2021/05/11 01:06:31;;;;;;;2.28;1.52;;;11.90;99.90;;;;;;20270193;29;20052;-47
2021/05/11 01:16:35;;;;;;;3.47;1.80;;;11.80;99.90;;;;;;20270050;29;20092;-46
2021/05/11 02:28:47;;;;;;;5.80;3.25;;;10.80;99.90;;;;;;21229868;27;20039;-45
2021/05/11 02:38:49;;;;;;;6.07;4.10;;;10.70;99.90;;;;;;21230323;27;20384;-45
2021/05/11 02:48:51;;;;;;;6.70;3.80;;;10.50;99.90;;;;;;21228320;27;20036;-44
2021/05/11 02:58:53;;;;;;;6.50;3.97;;;10.20;99.90;;;;;;21227999;27;20043;-48
2021/05/11 03:08:55;;;;;;;11.13;4.45;;;10.00;99.90;;;;;;21225723;28;20043;-48
2021/05/11 03:18:57;;;;;;;6.68;4.93;;;10.00;99.90;;;;;;21226520;28;20055;-45
2021/05/11 03:28:59;;;;;;;8.98;5.00;;;9.80;99.90;;;;;;21174659;27;20077;-47
2021/05/11 03:39:04;;;;;;;7.68;4.68;;;9.70;99.90;;;;;;21168756;28;20413;-46
2021/05/11 03:49:07;;;;;;;9.65;5.60;;;9.70;99.90;;;;;;21165946;28;20069;-46
2021/05/11 03:59:08;;;;;;;14.73;5.32;;;9.60;99.90;;;;;;21167913;27;20069;-45
2021/05/11 04:09:29;;;;;;;9.27;6.03;;;9.50;99.90;;;;;;21165070;28;20481;-46
2021/05/11 04:19:31;;;;;;;11.45;6.47;;;9.30;99.90;;;;;;21165088;28;20043;-44
2021/05/11 04:29:34;;;;;;;6.85;4.13;;;9.20;99.90;;;;;;21162838;28;20538;-45
2021/05/11 04:39:36;;;;;;;5.78;3.40;;;9.20;99.90;;;;;;21162043;28;20047;-45
2021/05/11 04:49:38;;;;;;;4.60;2.55;;;9.10;99.90;;;;;;21162179;28;20096;-45
2021/05/11 04:59:40;;;;;;;4.85;2.90;;;9.00;99.90;;;;;;21163121;28;20092;-44
2021/05/11 05:09:42;;;;;;;5.75;3.80;;;8.90;99.90;;;;;;21160434;28;20096;-45
2021/05/11 05:19:44;;;;;;;6.13;3.85;;;8.90;99.90;;;;;;21160120;28;20468;-45
2021/05/11 05:29:46;;;;;;;5.32;3.83;;;8.80;99.90;;;;;;21159611;28;20043;-45
2021/05/11 05:39:51;;;;;;;4.80;2.75;;;8.80;99.90;;;;;;21159355;28;20047;-44
2021/05/11 05:50:00;;;;;;;6.75;2.97;;;8.90;99.90;;;;;;21158119;28;20059;-44
2021/05/11 06:00:04;;;;;;;4.65;3.00;;;9.00;99.90;;;;;;21157072;28;20058;-44
2021/05/11 06:10:15;;;;;;;5.72;3.50;;;9.00;99.90;;;;;;21171677;28;20116;-44
2021/05/11 06:20:17;;;;;;;5.35;3.42;;;9.00;99.90;;;;;;21241114;28;20039;-44
2021/05/11 06:30:19;;;;;;;6.10;3.03;;;9.10;99.90;;;;;;21222296;28;20043;-44
2021/05/11 06:40:22;;;;;;;6.10;2.50;;;9.00;99.90;;;;;;21240331;28;20048;-43
2021/05/11 06:50:39;;;;;;;4.68;2.70;;;8.90;99.90;;;;;;21197492;28;20377;-44
2021/05/11 07:00:42;;;;;;;4.47;2.60;;;8.80;99.90;;;;;;21144606;28;20090;-44
2021/05/11 07:10:53;;;;;;;4.53;2.30;;;8.80;99.90;;;;;;21169687;28;20056;-44
2021/05/11 07:20:57;;;;;;;4.43;2.60;;;8.80;99.90;;;;;;21168056;28;20035;-44
2021/05/11 07:31:04;;;;;;;4.22;2.78;;;8.80;99.90;;;;;;21168806;28;20040;-44
2021/05/11 07:41:08;;;;;;;4.55;3.00;;;8.70;99.90;;;;;;21168151;27;20096;-45
2021/05/11 07:51:35;;;;;;;3.88;2.75;;;8.60;99.90;;;;;;21166998;28;20073;-44
2021/05/11 08:32:33;;;;;;;5.40;3.10;;;8.40;99.90;;;;;;21081375;28;20086;-47
2021/05/11 08:42:35;;;;;;;3.60;2.50;;;8.40;99.90;;;;;;21078508;28;20040;-45
2021/05/11 08:52:56;;;;;;;3.40;2.13;;;8.50;99.90;;;;;;21138404;28;20047;-45
2021/05/11 09:23:55;;;;;;;3.20;1.80;;;8.80;99.90;;;;;;21159022;27;20044;-45
2021/05/11 09:55:10;;;;;;;5.63;1.70;;;8.90;99.90;;;;;;21185935;27;20042;-45
2021/05/11 10:47:15;;;;;;;4.05;1.63;;;8.60;99.90;;;;;;21242024;27;20040;-45
2021/05/11 10:57:31;;;;;;;2.45;1.55;;;8.60;99.90;;;;;;21170832;28;20049;-44
2021/05/11 11:07:36;;;;;;;3.15;2.00;;;8.40;99.90;;;;;;21152538;28;20058;-45
2021/05/11 11:17:43;;;;;;;2.47;1.85;;;8.40;99.90;;;;;;21170544;28;20116;-45
2021/05/11 11:27:48;;;;;;;3.42;2.03;;;8.40;99.90;;;;;;21169416;28;20043;-45
2021/05/11 11:37:51;;;;;;;4.10;2.38;;;8.40;99.90;;;;;;21168208;28;20438;-45
2021/05/11 11:48:03;;;;;;;4.75;2.63;;;8.40;99.90;;;;;;21168466;28;20441;-45
2021/05/11 11:58:05;;;;;;;6.35;3.20;;;8.40;99.90;;;;;;21167062;28;20097;-45
2021/05/11 12:18:19;;;;;;;6.40;3.25;;;8.10;99.90;;;;;;21164873;28;20047;-44
2021/05/11 12:28:38;;;;;;;6.13;3.08;;;8.00;99.90;;;;;;21050956;28;20044;-45
2021/05/11 12:38:50;;;;;;;4.70;2.45;;;8.10;99.90;;;;;;20994983;28;20102;-44
2021/05/11 12:49:06;;;;;;;3.53;2.20;;;8.00;99.90;;;;;;21005265;28;20070;-44
2021/05/11 12:59:12;;;;;;;6.22;3.38;;;8.00;99.90;;;;;;21072946;28;20048;-45
2021/05/11 13:20:13;;;;;;;3.58;2.00;;;8.30;99.90;;;;;;21073721;28;20089;-44
2021/05/11 13:30:33;;;;;;;4.85;2.70;;;8.30;99.90;;;;;;21141129;28;20043;-43
2021/05/11 13:40:37;;;;;;;5.28;2.30;;;8.40;99.90;;;;;;21157998;28;20047;-43
2021/05/11 13:50:52;;;;;;;6.90;2.35;;;8.40;99.90;;;;;;21158411;28;20101;-43
2021/05/11 14:11:21;;;;;;;5.35;2.70;;;8.60;99.90;;;;;;21156575;28;20069;-43
2021/05/11 14:21:25;;;;;;;4.43;2.78;;;8.50;99.90;;;;;;21121304;28;20048;-43
2021/05/11 14:31:27;;;;;;;5.25;2.92;;;8.50;99.90;;;;;;21155709;28;20112;-43
2021/05/11 14:41:38;;;;;;;4.10;2.60;;;8.50;99.90;;;;;;21155831;28;20047;-43
2021/05/11 14:51:40;;;;;;;4.03;3.38;;;8.60;99.90;;;;;;21154403;28;20044;-44
2021/05/11 15:01:44;;;;;;;7.55;3.08;;;8.60;99.90;;;;;;21155000;28;20039;-44
2021/05/11 15:11:49;;;;;;;5.65;3.03;;;8.50;99.90;;;;;;21153116;28;20093;-43
2021/05/11 15:21:55;;;;;;;5.50;3.60;;;8.60;99.90;;;;;;21162401;28;20101;-44
2021/05/11 15:32:25;;;;;;;6.38;4.38;;;8.50;99.90;;;;;;21169762;28;20096;-43
2021/05/11 15:42:31;;;;;;;6.10;4.82;;;8.60;99.90;;;;;;21156186;28;20439;-44
2021/05/11 15:52:36;;;;;;;7.13;4.18;;;8.70;99.90;;;;;;21166912;28;20039;-44
2021/05/11 16:02:42;;;;;;;4.45;2.88;;;8.70;99.90;;;;;;21161887;28;20047;-44
2021/05/11 16:12:45;;;;;;;4.18;2.45;;;8.80;99.90;;;;;;21162530;28;20069;-44
2021/05/11 16:22:54;;;;;;;3.65;1.60;;;8.80;99.90;;;;;;21164846;28;20039;-45
2021/05/11 16:33:03;;;;;;;2.05;1.20;;;8.80;99.90;;;;;;21062248;28;20048;-45
2021/05/11 16:43:06;;;;;;;35.22;3.13;;;8.80;99.90;;;;;;21078354;28;20081;-44
2021/05/11 16:53:16;;;;;;;97.72;5.85;;;8.80;99.90;;;;;;21143681;28;20446;-44
2021/05/11 17:03:26;;;;;;;9.55;1.95;;;8.70;99.90;;;;;;21156292;28;20043;-44
2021/05/11 17:13:37;;;;;;;0.98;0.63;;;8.70;99.90;;;;;;21160068;28;20073;-44
2021/05/11 17:23:41;;;;;;;;;;;8.70;99.90;;;;;;21156459;28;20052;-44
2021/05/11 17:33:48;;;;;;;0.75;0.73;;;8.70;99.90;;;;;;21158924;28;20434;-45
2021/05/11 17:43:53;;;;;;;1.40;1.27;;;8.70;99.90;;;;;;21158627;28;20121;-44
2021/05/11 17:54:03;;;;;;;8.32;1.63;;;8.80;99.90;;;;;;21179466;27;20035;-44
2021/05/11 18:04:10;;;;;;;349.92;17.42;;;8.80;99.90;;;;;;21240631;27;20100;-43
2021/05/11 18:14:17;;;;;;;1.00;0.90;;;8.80;99.90;;;;;;21238684;27;20104;-44
2021/05/11 18:24:31;;;;;;;1.02;0.80;;;8.70;99.90;;;;;;21162855;28;20051;-43
2021/05/11 18:34:39;;;;;;;2.13;0.90;;;8.60;99.90;;;;;;21154823;28;20537;-44
2021/05/11 18:44:52;;;;;;;1.65;0.80;;;8.50;99.90;;;;;;21136906;28;20538;-43
2021/05/11 18:54:57;;;;;;;0.50;0.47;;;8.50;99.90;;;;;;21141582;28;20048;-42
2021/05/11 19:05:04;;;;;;;0.95;0.55;;;8.40;99.90;;;;;;21166092;28;20048;-43
2021/05/11 19:15:14;;;;;;;0.70;0.55;;;8.30;99.90;;;;;;21168481;28;20040;-44
2021/05/11 19:25:30;;;;;;;1.13;0.90;;;8.40;99.90;;;;;;21165046;28;20081;-44
2021/05/11 19:35:37;;;;;;;0.60;0.60;;;8.40;99.90;;;;;;21145002;28;20065;-43
2021/05/11 19:45:47;;;;;;;0.80;0.70;;;8.50;99.90;;;;;;21164810;28;20044;-44
2021/05/11 19:56:21;;;;;;;4.53;1.25;;;8.40;99.90;;;;;;20989413;28;20036;-43
2021/05/11 20:06:38;;;;;;;185.77;9.48;;;8.40;99.90;;;;;;20986706;28;20040;-44
2021/05/11 20:16:42;;;;;;;0.50;0.30;;;8.30;99.90;;;;;;20975433;28;20083;-43
2021/05/11 20:26:48;;;;;;;0.98;0.45;;;8.10;99.90;;;;;;21096235;28;20136;-44
2021/05/11 20:36:55;;;;;;;1.10;0.70;;;8.00;99.90;;;;;;21095491;28;20490;-44
2021/05/11 20:47:05;;;;;;;1.15;0.90;;;7.90;99.90;;;;;;21164115;28;20043;-43
2021/05/11 20:57:09;;;;;;;0.85;0.60;;;8.00;99.90;;;;;;21144758;28;20039;-43
2021/05/11 21:07:17;;;;;;;0.52;0.40;;;8.00;99.90;;;;;;21123890;28;20401;-44
2021/05/11 21:17:29;;;;;;;1.40;0.17;;;7.90;99.90;;;;;;21055090;28;20048;-43
2021/05/11 21:27:40;;;;;;;1.08;0.15;;;7.70;99.90;;;;;;21074211;28;20040;-43
2021/05/11 21:37:48;;;;;;;0.13;0.00;;;7.60;99.90;;;;;;21074896;28;20032;-42
2021/05/11 21:47:54;;;;;;;0.10;0.03;;;7.40;99.90;;;;;;21073901;28;20089;-43
2021/05/11 21:57:57;;;;;;;0.52;0.10;;;7.40;99.90;;;;;;21129183;28;20055;-43
2021/05/11 22:08:01;;;;;;;0.80;0.17;;;7.30;99.90;;;;;;21139258;28;20035;-43
2021/05/11 22:18:09;;;;;;;0.20;0.10;;;7.30;99.90;;;;;;21230835;27;20072;-43
2021/05/11 22:28:16;;;;;;;0.57;0.20;;;7.30;99.90;;;;;;21244037;27;20039;-43
2021/05/11 22:38:25;;;;;;;2.30;0.00;;;7.30;99.90;;;;;;21258858;27;20039;-43
2021/05/11 22:48:27;;;;;;;0.20;0.10;;;7.40;99.90;;;;;;21231108;27;20044;-43
2021/05/11 22:58:30;;;;;;;0.30;0.30;;;7.30;99.90;;;;;;21150632;28;20048;-42
2021/05/11 23:08:33;;;;;;;0.57;0.22;;;7.40;99.90;;;;;;21169036;28;20400;-43
2021/05/11 23:18:34;;;;;;;1.60;0.20;;;7.30;99.90;;;;;;21168011;28;20089;-43
2021/05/11 23:28:37;;;;;;;0.30;0.10;;;7.40;99.90;;;;;;21169967;28;20072;-43
2021/05/11 23:38:46;;;;;;;0.20;0.10;;;7.30;99.90;;;;;;21167379;28;20047;-43
2021/05/11 23:48:49;;;;;;;0.03;0.00;;;7.30;99.90;;;;;;21168676;28;20080;-43
2021/05/11 23:58:55;;;;;;;0.40;0.10;;;7.40;99.90;;;;;;21167643;28;20032;-42
